createdAt,value
2022-11-24T00:01:15.893Z,8.48
2022-11-24T00:03:45.029Z,8.11
2022-11-24T00:06:14.517Z,8.19
2022-11-24T00:08:43.645Z,8.29
2022-11-24T00:11:22.301Z,8.34
2022-11-24T00:13:50.701Z,8.39
2022-11-24T00:16:20.408Z,8.44
2022-11-24T00:18:49.423Z,8.36
2022-11-24T00:21:18.495Z,8.39
2022-11-24T00:23:47.037Z,8.44
2022-11-24T00:26:14.965Z,8.45
2022-11-24T00:28:43.545Z,8.37
2022-11-24T00:31:22.226Z,7.99
2022-11-24T00:33:51.766Z,7.55
2022-11-24T00:36:21.171Z,7.35
2022-11-24T00:38:53.236Z,7.42
2022-11-24T00:41:21.717Z,7.56
2022-11-24T00:43:49.852Z,7.59
2022-11-24T00:46:18.904Z,7.45
2022-11-24T00:48:47.555Z,7.69
2022-11-24T00:51:16.759Z,7.97
2022-11-24T00:53:44.949Z,8.24
2022-11-24T00:56:13.521Z,8.49
2022-11-24T00:58:41.898Z,8.60
2022-11-24T01:01:13.157Z,8.57
2022-11-24T01:03:42.648Z,8.59
2022-11-24T01:06:15.224Z,8.33
2022-11-24T01:08:43.322Z,7.88
2022-11-24T01:11:11.371Z,7.99
2022-11-24T01:13:40.147Z,8.17
2022-11-24T01:16:19.123Z,8.20
2022-11-24T01:18:47.453Z,7.97
2022-11-24T01:21:15.729Z,7.72
2022-11-24T01:23:43.974Z,7.80
2022-11-24T01:26:14.222Z,7.90
2022-11-24T01:28:47.250Z,8.00
2022-11-24T01:31:17.039Z,7.97
2022-11-24T01:33:45.190Z,7.89
2022-11-24T01:36:13.484Z,7.94
2022-11-24T01:38:41.948Z,7.95
2022-11-24T01:41:12.894Z,8.18
2022-11-24T01:43:41.874Z,8.53
2022-11-24T01:46:13.462Z,8.71
2022-11-24T01:48:43.873Z,8.43
2022-11-24T01:51:13.835Z,8.35
2022-11-24T01:53:44.299Z,8.57
2022-11-24T01:56:13.594Z,8.81
2022-11-24T01:58:43.195Z,8.95
2022-11-24T02:01:11.409Z,9.05
2022-11-24T02:03:42.379Z,9.12
2022-11-24T02:06:15.911Z,9.15
2022-11-24T02:08:43.980Z,8.97
2022-11-24T02:11:11.957Z,8.79
2022-11-24T02:13:41.452Z,8.96
2022-11-24T02:16:11.115Z,9.04
2022-11-24T02:18:40.255Z,9.08
2022-11-24T02:21:10.179Z,8.67
2022-11-24T02:23:41.213Z,8.52
2022-11-24T02:26:21.481Z,8.05
2022-11-24T02:28:50.117Z,7.98
2022-11-24T02:31:18.450Z,8.26
2022-11-24T02:33:47.220Z,8.53
2022-11-24T02:36:15.222Z,8.74
2022-11-24T02:38:43.590Z,8.86
2022-11-24T02:41:14.748Z,9.02
2022-11-24T02:43:45.229Z,9.28
2022-11-24T02:46:13.329Z,9.46
2022-11-24T02:48:41.333Z,9.23
2022-11-24T02:51:09.438Z,8.78
2022-11-24T02:53:37.395Z,8.49
2022-11-24T02:56:05.687Z,8.50
2022-11-24T02:58:33.700Z,8.76
2022-11-24T03:01:01.644Z,8.73
2022-11-24T03:03:29.693Z,8.86
2022-11-24T03:05:57.763Z,9.15
2022-11-24T03:08:25.729Z,9.17
2022-11-24T03:10:54.649Z,9.20
2022-11-24T03:13:22.718Z,9.18
2022-11-24T03:15:50.933Z,9.28
2022-11-24T03:18:19.140Z,9.39
2022-11-24T03:20:47.084Z,9.35
2022-11-24T03:23:15.074Z,9.10
2022-11-24T03:25:43.123Z,9.20
2022-11-24T03:28:10.999Z,9.19
2022-11-24T03:30:38.982Z,9.22
2022-11-24T03:33:07.399Z,9.24
2022-11-24T03:35:35.288Z,9.34
2022-11-24T03:38:03.397Z,9.37
2022-11-24T03:40:31.568Z,9.45
2022-11-24T03:42:59.921Z,9.53
2022-11-24T03:45:45.479Z,9.50
2022-11-24T03:48:15.542Z,9.55
2022-11-24T03:50:44.128Z,9.65
2022-11-24T03:53:12.294Z,9.70
2022-11-24T03:55:40.222Z,9.79
2022-11-24T03:58:08.231Z,9.81
2022-11-24T04:00:36.406Z,9.77
2022-11-24T04:03:04.425Z,9.75
2022-11-24T04:05:33.592Z,9.78
2022-11-24T04:08:03.996Z,9.76
2022-11-24T04:10:33.207Z,9.72
2022-11-24T04:13:01.444Z,9.71
2022-11-24T04:15:29.744Z,9.69
2022-11-24T04:17:57.631Z,9.68
2022-11-24T04:20:25.987Z,9.66
2022-11-24T04:22:53.974Z,9.57
2022-11-24T04:25:22.031Z,9.43
2022-11-24T04:27:53.369Z,9.37
2022-11-24T04:30:22.090Z,9.31
2022-11-24T04:32:50.092Z,9.33
2022-11-24T04:35:18.714Z,9.10
2022-11-24T04:37:46.718Z,8.92
2022-11-24T04:40:15.155Z,8.81
2022-11-24T04:42:43.333Z,8.94
2022-11-24T04:45:12.113Z,9.00
2022-11-24T04:47:40.368Z,9.01
2022-11-24T04:50:09.200Z,8.97
2022-11-24T04:52:37.555Z,9.03
2022-11-24T04:55:05.676Z,9.03
2022-11-24T04:57:33.814Z,9.09
2022-11-24T05:00:02.004Z,9.24
2022-11-24T05:02:30.020Z,9.26
2022-11-24T05:05:00.273Z,9.19
2022-11-24T05:07:28.570Z,9.21
2022-11-24T05:10:15.347Z,9.20
2022-11-24T05:12:48.434Z,8.97
2022-11-24T05:15:19.168Z,8.89
2022-11-24T05:17:47.197Z,8.90
2022-11-24T05:20:15.169Z,8.97
2022-11-24T05:22:43.277Z,9.03
2022-11-24T05:25:11.285Z,9.02
2022-11-24T05:27:39.197Z,9.05
2022-11-24T05:30:07.978Z,9.21
2022-11-24T05:32:35.967Z,9.33
2022-11-24T05:35:04.688Z,9.12
2022-11-24T05:37:32.624Z,8.72
2022-11-24T05:40:00.688Z,8.63
2022-11-24T05:42:46.628Z,8.75
2022-11-24T05:45:17.462Z,8.90
2022-11-24T05:47:46.276Z,8.77
2022-11-24T05:50:15.969Z,8.46
2022-11-24T05:52:44.355Z,8.25
2022-11-24T05:55:12.643Z,8.44
2022-11-24T05:57:40.733Z,8.74
2022-11-24T06:00:09.624Z,9.00
2022-11-24T06:02:41.030Z,9.27
2022-11-24T06:05:09.757Z,9.50
2022-11-24T06:07:38.078Z,9.42
2022-11-24T06:10:06.365Z,9.14
2022-11-24T06:12:34.395Z,8.78
2022-11-24T06:15:02.550Z,8.77
2022-11-24T06:17:30.670Z,8.85
2022-11-24T06:19:58.899Z,8.90
2022-11-24T06:22:27.068Z,8.85
2022-11-24T06:24:55.082Z,8.96
2022-11-24T06:27:23.229Z,9.06
2022-11-24T06:29:51.389Z,9.06
2022-11-24T06:32:19.557Z,9.09
2022-11-24T06:34:47.726Z,9.25
2022-11-24T06:37:16.074Z,9.50
2022-11-24T06:39:44.229Z,9.64
2022-11-24T06:42:12.577Z,9.67
2022-11-24T06:44:41.851Z,9.31
2022-11-24T06:47:09.797Z,9.00
2022-11-24T06:49:37.770Z,8.85
2022-11-24T06:52:05.790Z,8.83
2022-11-24T06:54:34.212Z,8.83
2022-11-24T06:57:02.620Z,8.80
2022-11-24T06:59:30.958Z,8.76
2022-11-24T07:01:59.029Z,8.68
2022-11-24T07:04:27.090Z,8.53
2022-11-24T07:06:55.246Z,8.45
2022-11-24T07:09:23.575Z,8.52
2022-11-24T07:11:51.613Z,8.58
2022-11-24T07:14:19.895Z,8.56
2022-11-24T07:16:48.008Z,8.65
2022-11-24T07:19:20.201Z,8.74
2022-11-24T07:21:51.610Z,8.82
2022-11-24T07:24:19.819Z,8.89
2022-11-24T07:26:48.119Z,8.93
2022-11-24T07:29:16.052Z,8.97
2022-11-24T07:31:45.715Z,8.96
2022-11-24T07:34:14.894Z,8.96
2022-11-24T07:36:43.030Z,8.96
2022-11-24T07:39:11.111Z,8.96
2022-11-24T07:41:39.170Z,9.00
2022-11-24T07:44:07.430Z,8.93
2022-11-24T07:46:35.662Z,8.79
2022-11-24T07:49:03.766Z,8.56
2022-11-24T07:51:31.730Z,8.31
2022-11-24T07:53:59.876Z,8.17
2022-11-24T07:56:28.180Z,8.30
2022-11-24T07:58:56.250Z,8.60
2022-11-24T08:01:24.489Z,8.85
2022-11-24T08:03:52.693Z,9.01
2022-11-24T08:06:26.102Z,9.16
2022-11-24T08:08:56.319Z,9.27
2022-11-24T08:11:24.736Z,9.43
2022-11-24T08:13:52.966Z,9.47
2022-11-24T08:16:21.251Z,9.52
2022-11-24T08:18:56.183Z,9.58
2022-11-24T08:21:24.598Z,9.56
2022-11-24T08:23:56.308Z,9.60
2022-11-24T08:26:25.443Z,9.77
2022-11-24T08:28:55.114Z,9.89
2022-11-24T08:31:23.602Z,9.97
2022-11-24T08:33:51.639Z,10.02
2022-11-24T08:36:19.576Z,10.02
2022-11-24T08:38:49.562Z,10.06
2022-11-24T08:41:17.927Z,10.15
2022-11-24T08:43:45.941Z,10.18
2022-11-24T08:46:17.280Z,9.96
2022-11-24T08:48:49.162Z,9.79
2022-11-24T08:51:19.299Z,9.93
2022-11-24T08:53:47.742Z,10.13
2022-11-24T08:56:16.044Z,10.30
2022-11-24T08:58:44.181Z,10.38
2022-11-24T09:01:14.400Z,10.46
2022-11-24T09:03:49.758Z,10.45
2022-11-24T09:06:23.854Z,10.37
2022-11-24T09:08:59.056Z,10.35
2022-11-24T09:13:13.318Z,10.34
2022-11-24T09:19:01.858Z,9.53
2022-11-24T09:21:50.324Z,9.85
2022-11-24T09:22:05.893Z,9.84
2022-11-24T09:36:25.784Z,10.14
2022-11-24T09:39:07.653Z,10.28
2022-11-24T09:41:48.746Z,10.27
2022-11-24T09:44:22.698Z,10.31
2022-11-24T09:46:59.918Z,10.43
2022-11-24T09:49:35.304Z,10.45
2022-11-24T09:52:21.460Z,10.42
2022-11-24T09:54:57.753Z,10.60
2022-11-24T09:57:32.737Z,10.54
2022-11-24T10:00:12.020Z,10.64
2022-11-24T10:02:40.603Z,10.51
2022-11-24T10:05:09.224Z,10.53
2022-11-24T10:07:55.599Z,10.54
2022-11-24T10:10:27.291Z,10.44
2022-11-24T12:49:12.416Z,8.74
2022-11-24T13:46:34.641Z,9.08
2022-11-24T13:58:12.418Z,8.99
2022-11-24T14:00:15.560Z,9.21
2022-11-24T14:09:24.883Z,9.29
2022-11-24T15:10:21.320Z,9.21
2022-11-24T15:20:49.579Z,8.70
2022-11-24T15:36:23.114Z,8.93
2022-11-24T16:57:19.245Z,9.67
2022-11-24T17:03:33.322Z,9.77
2022-11-24T17:03:36.888Z,9.73
2022-11-24T17:06:49.070Z,9.72
2022-11-24T17:09:24.970Z,9.59
2022-11-24T17:11:53.664Z,9.52
2022-11-24T17:14:20.406Z,9.46
2022-11-24T17:16:51.649Z,9.31
2022-11-24T17:19:18.606Z,9.27
2022-11-24T17:21:49.423Z,9.21
2022-11-24T17:24:44.139Z,9.11
2022-11-24T17:27:58.599Z,9.11
2022-11-24T17:30:26.636Z,9.19
2022-11-24T17:32:56.771Z,9.23
2022-11-24T17:35:36.341Z,9.19
2022-11-24T17:38:27.121Z,9.19
2022-11-24T17:41:07.359Z,9.18
2022-11-24T17:43:34.803Z,9.20
2022-11-24T17:46:21.823Z,9.26
2022-11-24T17:48:49.815Z,9.19
2022-11-24T17:51:17.764Z,9.12
2022-11-24T17:53:55.919Z,9.01
2022-11-24T17:56:40.126Z,9.04
2022-11-24T17:59:10.536Z,9.05
2022-11-24T18:01:47.244Z,8.99
2022-11-24T18:04:38.724Z,9.07
2022-11-24T18:07:11.373Z,9.24
2022-11-24T18:09:38.496Z,9.26
2022-11-24T18:12:16.775Z,9.23
2022-11-24T18:14:45.711Z,9.30
2022-11-24T18:17:12.706Z,9.33
2022-11-24T18:19:41.061Z,9.39
2022-11-24T18:23:04.579Z,9.42
2022-11-24T18:25:14.981Z,9.35
2022-11-24T18:27:41.732Z,9.32
2022-11-24T18:30:11.821Z,9.32
2022-11-24T18:32:38.547Z,9.30
2022-11-24T18:35:05.625Z,9.29
2022-11-24T18:37:33.343Z,9.32
2022-11-24T18:40:00.152Z,9.32
2022-11-24T18:42:27.691Z,9.31
2022-11-24T18:44:55.911Z,9.32
2022-11-24T18:47:22.485Z,9.30
2022-11-24T18:49:49.019Z,9.25
2022-11-24T18:52:15.977Z,9.20
2022-11-24T18:54:42.551Z,9.16
2022-11-24T18:57:09.155Z,9.12
2022-11-24T18:59:36.996Z,9.13
2022-11-24T19:02:03.728Z,9.08
2022-11-24T19:04:30.434Z,9.04
2022-11-24T19:06:57.065Z,9.04
2022-11-24T19:09:24.962Z,8.93
2022-11-24T19:11:51.696Z,8.94
2022-11-24T19:14:19.454Z,8.97
2022-11-24T19:16:47.492Z,8.95
2022-11-24T19:19:14.208Z,8.88
2022-11-24T19:21:40.908Z,8.89
2022-11-24T19:24:13.607Z,8.95
2022-11-24T19:26:40.323Z,9.00
2022-11-24T19:29:07.618Z,9.03
2022-11-24T19:31:34.829Z,9.03
2022-11-24T19:34:02.841Z,9.12
2022-11-24T19:36:29.670Z,9.16
2022-11-24T19:38:56.937Z,9.16
2022-11-24T19:41:25.360Z,9.19
2022-11-24T19:43:55.921Z,9.16
2022-11-24T19:46:25.617Z,9.13
2022-11-24T19:48:56.515Z,9.11
2022-11-24T19:51:24.935Z,9.04
2022-11-24T19:53:52.354Z,9.12
2022-11-24T19:56:20.656Z,9.17
2022-11-24T19:58:49.371Z,9.22
2022-11-24T20:01:16.117Z,9.24
2022-11-24T20:03:43.696Z,9.27
2022-11-24T20:06:16.027Z,9.28
2022-11-24T20:08:42.935Z,9.40
2022-11-24T20:11:11.236Z,9.45
2022-11-24T20:13:38.486Z,9.48
2022-11-24T20:16:09.435Z,9.59
2022-11-24T20:18:41.732Z,9.54
2022-11-24T20:21:16.859Z,9.50
2022-11-24T20:23:44.577Z,9.34
2022-11-24T20:26:15.971Z,9.32
2022-11-24T20:28:42.655Z,9.38
2022-11-24T20:31:14.799Z,9.41
2022-11-24T20:33:41.786Z,9.48
2022-11-24T20:36:09.890Z,9.44
2022-11-24T20:38:36.995Z,9.44
2022-11-24T20:41:14.018Z,9.38
2022-11-24T20:43:41.431Z,9.19
2022-11-24T20:46:10.213Z,8.97
2022-11-24T20:48:37.275Z,8.74
2022-11-24T20:51:03.822Z,8.56
2022-11-24T20:53:30.569Z,8.51
2022-11-24T20:56:05.878Z,8.49
2022-11-24T20:58:34.370Z,8.42
2022-11-24T21:01:10.607Z,8.36
2022-11-24T21:03:42.770Z,8.31
2022-11-24T21:06:13.870Z,8.40
2022-11-24T21:08:41.629Z,8.44
2022-11-24T21:11:10.526Z,8.49
2022-11-24T21:13:37.979Z,8.55
2022-11-24T21:16:19.622Z,8.62
2022-11-24T21:18:47.238Z,8.56
2022-11-24T21:21:14.115Z,8.48
2022-11-24T21:23:40.786Z,8.47
2022-11-24T21:26:13.096Z,8.51
2022-11-24T21:28:42.466Z,8.46
2022-11-24T21:31:14.187Z,8.45
2022-11-24T21:33:41.800Z,8.34
2022-11-24T21:36:08.432Z,8.08
2022-11-24T21:38:35.075Z,7.95
2022-11-24T21:41:02.158Z,7.85
2022-11-24T21:43:29.507Z,7.83
2022-11-24T21:46:03.461Z,7.96
2022-11-24T21:48:30.765Z,8.04
2022-11-24T21:50:58.343Z,8.18
2022-11-24T21:53:25.600Z,8.33
2022-11-24T21:55:59.801Z,8.43
2022-11-24T21:58:27.375Z,8.47
2022-11-24T22:00:54.589Z,8.57
2022-11-24T22:03:21.211Z,8.62
2022-11-24T22:05:54.518Z,8.80
2022-11-24T22:08:21.430Z,8.89
2022-11-24T22:10:48.281Z,8.94
2022-11-24T22:13:15.178Z,9.01
2022-11-24T22:15:41.908Z,9.00
2022-11-24T22:18:08.676Z,8.95
2022-11-24T22:20:35.326Z,8.71
2022-11-24T22:23:01.826Z,8.65
2022-11-24T22:25:28.414Z,8.68
2022-11-24T22:27:56.235Z,8.73
2022-11-24T22:30:22.921Z,8.91
2022-11-24T22:32:49.529Z,9.06
2022-11-24T22:35:16.041Z,9.09
2022-11-24T22:37:42.611Z,9.07
2022-11-24T22:40:09.398Z,9.00
2022-11-24T22:42:35.914Z,8.55
2022-11-24T22:45:02.728Z,8.23
2022-11-24T22:47:29.570Z,8.06
2022-11-24T22:49:56.197Z,8.28
2022-11-24T22:52:22.806Z,8.43
2022-11-24T22:54:49.544Z,8.37
2022-11-24T22:57:16.016Z,8.24
2022-11-24T22:59:42.645Z,8.42
2022-11-24T23:02:09.361Z,8.59
2022-11-24T23:04:36.176Z,8.59
2022-11-24T23:07:02.855Z,8.79
2022-11-24T23:09:29.359Z,9.10
2022-11-24T23:11:55.927Z,9.32
2022-11-24T23:14:22.484Z,9.51
2022-11-24T23:16:49.140Z,9.66
2022-11-24T23:19:15.846Z,9.74
2022-11-24T23:21:42.435Z,9.91
2022-11-24T23:24:09.801Z,10.05
2022-11-24T23:26:38.665Z,10.21
2022-11-24T23:29:05.306Z,9.81
2022-11-24T23:31:32.195Z,9.31
2022-11-24T23:33:59.968Z,9.09
2022-11-24T23:36:27.052Z,8.90
2022-11-24T23:38:53.959Z,8.55
2022-11-24T23:41:22.338Z,8.49
2022-11-24T23:43:48.993Z,8.52
2022-11-24T23:46:16.765Z,8.57
2022-11-24T23:48:44.076Z,8.71
2022-11-24T23:51:13.534Z,8.85
2022-11-24T23:53:40.890Z,8.97
2022-11-24T23:56:08.760Z,8.84
2022-11-24T23:58:35.440Z,8.72
